createdAt,value
2024-02-10T00:14:26.872Z,967.26
2024-02-10T00:29:28.931Z,967.43
2024-02-10T00:44:30.941Z,967.57
2024-02-10T00:59:32.958Z,967.77
2024-02-10T01:14:35.088Z,967.98
2024-02-10T01:29:37.070Z,968.11
2024-02-10T01:44:39.123Z,968.32
2024-02-10T01:59:41.223Z,968.4
2024-02-10T02:14:43.223Z,968.69
2024-02-10T02:29:45.293Z,968.78
2024-02-10T02:44:47.394Z,968.99
2024-02-10T02:59:49.501Z,969.21
2024-02-10T03:14:51.677Z,969.48
2024-02-10T03:29:53.937Z,969.59
2024-02-10T03:44:56.615Z,969.83
2024-02-10T03:59:58.668Z,969.9
2024-02-10T04:15:00.742Z,969.97
2024-02-10T04:30:02.815Z,970.08
2024-02-10T04:45:04.867Z,970.22
2024-02-10T05:00:06.890Z,970.35
2024-02-10T05:15:08.876Z,970.31
2024-02-10T05:30:11.521Z,970.38
2024-02-10T05:45:13.728Z,970.61
2024-02-10T06:00:15.745Z,970.77
2024-02-10T06:15:18.038Z,970.87
2024-02-10T06:30:20.290Z,970.89
2024-02-10T06:45:22.450Z,971.12
2024-02-10T07:00:24.618Z,971.2
2024-02-10T07:15:26.916Z,971.36
2024-02-10T07:30:29.158Z,971.46
2024-02-10T07:45:32.510Z,971.46
2024-02-10T08:00:34.694Z,971.39
2024-02-10T08:15:36.747Z,971.4
2024-02-10T08:30:38.602Z,971.35
2024-02-10T08:45:40.690Z,971.55
2024-02-10T09:00:42.800Z,971.59
2024-02-10T09:15:44.791Z,971.8
2024-02-10T09:30:46.852Z,971.98
2024-02-10T09:45:48.861Z,972.11
2024-02-10T10:00:51.168Z,972.01
2024-02-10T10:15:53.348Z,971.91
2024-02-10T10:30:55.415Z,971.7
2024-02-10T10:45:57.593Z,971.6
2024-02-10T11:00:59.717Z,971.66
2024-02-10T11:16:01.959Z,971.64
2024-02-10T11:31:03.997Z,971.69
2024-02-10T11:46:05.988Z,971.66
2024-02-10T12:01:08.186Z,971.71
2024-02-10T12:16:10.373Z,971.74
2024-02-10T12:31:12.443Z,972
2024-02-10T12:46:14.658Z,971.94
2024-02-10T13:01:16.834Z,971.98
2024-02-10T13:16:19.140Z,971.7
2024-02-10T13:31:21.653Z,971.59
2024-02-10T13:46:24.046Z,971.7
2024-02-10T14:01:26.338Z,971.94
2024-02-10T14:16:29.256Z,972.15
2024-02-10T14:31:32.041Z,972.16
2024-02-10T14:46:34.174Z,972.14
2024-02-10T15:01:36.590Z,972.17
2024-02-10T15:16:38.805Z,972.24
2024-02-10T15:31:41.079Z,972.3
2024-02-10T15:46:43.550Z,972.34
2024-02-10T16:01:45.858Z,972.35
2024-02-10T16:16:48.061Z,972.38
2024-02-10T16:31:50.250Z,972.35
2024-02-10T16:46:52.297Z,972.37
2024-02-10T17:01:54.520Z,972.3
2024-02-10T17:16:56.606Z,972.12
2024-02-10T17:31:58.801Z,972.18
2024-02-10T17:47:00.906Z,972.29
2024-02-10T18:02:03.039Z,972.41
2024-02-10T18:17:05.217Z,972.41
2024-02-10T18:32:07.350Z,972.47
2024-02-10T18:47:09.494Z,972.28
2024-02-10T19:02:11.718Z,972.09
2024-02-10T19:17:13.780Z,971.75
2024-02-10T19:32:15.979Z,971.76
2024-02-10T19:47:18.159Z,971.54
2024-02-10T20:02:20.650Z,971.51
2024-02-10T20:17:22.852Z,971.09
2024-02-10T20:32:25.089Z,970.9
2024-02-10T20:47:27.362Z,970.65
2024-02-10T21:02:29.360Z,970.25
2024-02-10T21:17:32.726Z,970.03
2024-02-10T21:32:34.828Z,969.85
2024-02-10T21:47:36.925Z,969.77
2024-02-10T22:02:38.960Z,969.83
2024-02-10T22:17:41.050Z,969.78
2024-02-10T22:32:43.141Z,969.68
2024-02-10T22:47:45.511Z,969.68
2024-02-10T23:02:47.699Z,969.75
2024-02-10T23:17:50.177Z,969.76
2024-02-10T23:32:52.409Z,969.73
2024-02-10T23:47:54.678Z,969.64
